sensor_id;sensor_type;location;lat;lon;timestamp;pressure;altitude;pressure_sealevel;temperature;humidity
53262;BME280;39658;51.090;-1.786;2023-03-21T00:23:12;100588.19;;;7.73;100.00
53262;BME280;39658;51.090;-1.786;2023-03-21T00:28:35;100585.22;;;7.80;100.00
53262;BME280;39658;51.090;-1.786;2023-03-21T00:31:03;100579.72;;;7.84;100.00
53262;BME280;39658;51.090;-1.786;2023-03-21T00:33:31;100586.50;;;7.88;100.00
53262;BME280;39658;51.090;-1.786;2023-03-21T00:35:59;100590.03;;;7.87;100.00
53262;BME280;39658;51.090;-1.786;2023-03-21T00:38:27;100595.28;;;7.87;100.00
53262;BME280;39658;51.090;-1.786;2023-03-21T00:40:55;100583.22;;;7.85;100.00
53262;BME280;39658;51.090;-1.786;2023-03-21T00:43:21;100588.81;;;7.79;100.00
53262;BME280;39658;51.090;-1.786;2023-03-21T00:45:55;100582.59;;;7.80;100.00
53262;BME280;39658;51.090;-1.786;2023-03-21T00:48:23;100582.69;;;7.78;100.00
53262;BME280;39658;51.090;-1.786;2023-03-21T00:50:50;100578.31;;;7.79;100.00
53262;BME280;39658;51.090;-1.786;2023-03-21T00:53:18;100574.72;;;7.80;100.00
53262;BME280;39658;51.090;-1.786;2023-03-21T00:55:47;100571.00;;;7.84;100.00
53262;BME280;39658;51.090;-1.786;2023-03-21T00:58:14;100565.50;;;7.88;100.00
53262;BME280;39658;51.090;-1.786;2023-03-21T01:00:41;100566.41;;;7.87;100.00
53262;BME280;39658;51.090;-1.786;2023-03-21T01:03:10;100563.72;;;7.89;100.00
53262;BME280;39658;51.090;-1.786;2023-03-21T01:05:41;100558.38;;;7.90;100.00
53262;BME280;39658;51.090;-1.786;2023-03-21T01:08:26;100549.47;;;7.93;100.00
53262;BME280;39658;51.090;-1.786;2023-03-21T01:10:55;100551.19;;;7.94;100.00
53262;BME280;39658;51.090;-1.786;2023-03-21T01:13:24;100546.78;;;7.95;100.00
53262;BME280;39658;51.090;-1.786;2023-03-21T01:15:53;100539.38;;;8.01;100.00
53262;BME280;39658;51.090;-1.786;2023-03-21T01:18:22;100533.66;;;7.95;100.00
53262;BME280;39658;51.090;-1.786;2023-03-21T01:20:50;100524.25;;;7.90;100.00
53262;BME280;39658;51.090;-1.786;2023-03-21T01:23:16;100523.16;;;7.95;100.00
53262;BME280;39658;51.090;-1.786;2023-03-21T01:25:46;100526.50;;;7.97;100.00
53262;BME280;39658;51.090;-1.786;2023-03-21T01:28:15;100521.25;;;7.97;100.00
53262;BME280;39658;51.090;-1.786;2023-03-21T01:30:44;100525.22;;;8.04;100.00
53262;BME280;39658;51.090;-1.786;2023-03-21T01:33:11;100518.38;;;8.01;100.00
53262;BME280;39658;51.090;-1.786;2023-03-21T01:35:38;100514.25;;;7.97;100.00
53262;BME280;39658;51.090;-1.786;2023-03-21T01:38:04;100508.91;;;7.99;100.00
53262;BME280;39658;51.090;-1.786;2023-03-21T01:40:32;100507.47;;;7.93;100.00
53262;BME280;39658;51.090;-1.786;2023-03-21T01:42:58;100507.56;;;7.91;100.00
53262;BME280;39658;51.090;-1.786;2023-03-21T01:48:31;100502.75;;;7.84;100.00
53262;BME280;39658;51.090;-1.786;2023-03-21T01:50:59;100487.94;;;7.83;100.00
53262;BME280;39658;51.090;-1.786;2023-03-21T01:53:28;100494.50;;;7.76;100.00
53262;BME280;39658;51.090;-1.786;2023-03-21T01:55:56;100494.16;;;7.82;100.00
53262;BME280;39658;51.090;-1.786;2023-03-21T01:58:23;100486.09;;;7.85;100.00
53262;BME280;39658;51.090;-1.786;2023-03-21T02:00:51;100481.47;;;7.74;100.00
53262;BME280;39658;51.090;-1.786;2023-03-21T02:03:19;100471.31;;;7.68;100.00
53262;BME280;39658;51.090;-1.786;2023-03-21T02:05:51;100478.34;;;7.67;100.00
53262;BME280;39658;51.090;-1.786;2023-03-21T02:08:20;100478.34;;;7.67;100.00
53262;BME280;39658;51.090;-1.786;2023-03-21T02:10:47;100472.59;;;7.61;100.00
53262;BME280;39658;51.090;-1.786;2023-03-21T02:13:15;100475.31;;;7.59;100.00
53262;BME280;39658;51.090;-1.786;2023-03-21T02:15:45;100473.53;;;7.60;100.00
53262;BME280;39658;51.090;-1.786;2023-03-21T02:18:18;100470.16;;;7.58;100.00
53262;BME280;39658;51.090;-1.786;2023-03-21T02:26:56;100460.00;;;7.51;100.00
53262;BME280;39658;51.090;-1.786;2023-03-21T02:29:47;100456.63;;;7.49;100.00
53262;BME280;39658;51.090;-1.786;2023-03-21T02:32:27;100457.47;;;7.50;100.00
53262;BME280;39658;51.090;-1.786;2023-03-21T02:35:14;100442.50;;;7.52;100.00
53262;BME280;39658;51.090;-1.786;2023-03-21T02:37:54;100445.31;;;7.49;100.00
53262;BME280;39658;51.090;-1.786;2023-03-21T02:40:27;100428.72;;;7.48;100.00
53262;BME280;39658;51.090;-1.786;2023-03-21T02:43:02;100424.69;;;7.43;100.00
53262;BME280;39658;51.090;-1.786;2023-03-21T02:45:37;100421.88;;;7.46;100.00
53262;BME280;39658;51.090;-1.786;2023-03-21T02:48:08;100429.75;;;7.46;100.00
53262;BME280;39658;51.090;-1.786;2023-03-21T02:50:40;100428.22;;;7.42;100.00
53262;BME280;39658;51.090;-1.786;2023-03-21T02:53:13;100432.38;;;7.46;100.00
53262;BME280;39658;51.090;-1.786;2023-03-21T02:55:42;100424.84;;;7.40;100.00
53262;BME280;39658;51.090;-1.786;2023-03-21T02:58:11;100429.75;;;7.46;100.00
53262;BME280;39658;51.090;-1.786;2023-03-21T03:00:39;100420.44;;;7.40;100.00
53262;BME280;39658;51.090;-1.786;2023-03-21T03:03:07;100427.31;;;7.43;100.00
53262;BME280;39658;51.090;-1.786;2023-03-21T03:05:36;100422.06;;;7.43;100.00
53262;BME280;39658;51.090;-1.786;2023-03-21T03:08:19;100419.44;;;7.43;100.00
53262;BME280;39658;51.090;-1.786;2023-03-21T03:11:01;100414.00;;;7.46;100.00
53262;BME280;39658;51.090;-1.786;2023-03-21T03:13:53;100410.63;;;7.44;100.00
53262;BME280;39658;51.090;-1.786;2023-03-21T03:16:30;100405.38;;;7.44;100.00
53262;BME280;39658;51.090;-1.786;2023-03-21T03:19:03;100410.53;;;7.45;100.00
53262;BME280;39658;51.090;-1.786;2023-03-21T03:21:36;100400.47;;;7.37;100.00
53262;BME280;39658;51.090;-1.786;2023-03-21T03:24:09;100407.34;;;7.40;100.00
53262;BME280;39658;51.090;-1.786;2023-03-21T03:26:39;100381.94;;;7.41;100.00
53262;BME280;39658;51.090;-1.786;2023-03-21T03:29:08;100388.03;;;7.41;100.00
53262;BME280;39658;51.090;-1.786;2023-03-21T03:31:41;100401.72;;;7.46;100.00
53262;BME280;39658;51.090;-1.786;2023-03-21T03:34:15;100392.25;;;7.44;100.00
53262;BME280;39658;51.090;-1.786;2023-03-21T03:36:47;100393.28;;;7.41;100.00
53262;BME280;39658;51.090;-1.786;2023-03-21T03:39:25;100394.88;;;7.44;100.00
53262;BME280;39658;51.090;-1.786;2023-03-21T03:41:58;100395.75;;;7.44;100.00
53262;BME280;39658;51.090;-1.786;2023-03-21T03:44:27;100394.03;;;7.43;100.00
53262;BME280;39658;51.090;-1.786;2023-03-21T03:46:58;100407.16;;;7.43;100.00
53262;BME280;39658;51.090;-1.786;2023-03-21T03:49:29;100400.22;;;7.42;100.00
53262;BME280;39658;51.090;-1.786;2023-03-21T03:52:01;100402.66;;;7.45;100.00
53262;BME280;39658;51.090;-1.786;2023-03-21T03:54:32;100394.59;;;7.48;100.00
53262;BME280;39658;51.090;-1.786;2023-03-21T03:57:03;100387.69;;;7.47;100.00
53262;BME280;39658;51.090;-1.786;2023-03-21T03:59:32;100378.97;;;7.47;100.00
53262;BME280;39658;51.090;-1.786;2023-03-21T04:01:59;100373.97;;;7.42;100.00
53262;BME280;39658;51.090;-1.786;2023-03-21T04:04:26;100369.31;;;7.47;100.00
53262;BME280;39658;51.090;-1.786;2023-03-21T04:06:53;100375.69;;;7.43;100.00
53262;BME280;39658;51.090;-1.786;2023-03-21T04:09:20;100373.88;;;7.44;100.00
53262;BME280;39658;51.090;-1.786;2023-03-21T04:11:49;100364.25;;;7.44;100.00
53262;BME280;39658;51.090;-1.786;2023-03-21T04:14:16;100353.78;;;7.44;100.00
53262;BME280;39658;51.090;-1.786;2023-03-21T04:16:43;100362.28;;;7.48;100.00
53262;BME280;39658;51.090;-1.786;2023-03-21T04:19:09;100361.47;;;7.47;100.00
53262;BME280;39658;51.090;-1.786;2023-03-21T04:21:36;100356.97;;;7.49;100.00
53262;BME280;39658;51.090;-1.786;2023-03-21T04:24:04;100353.50;;;7.49;100.00
53262;BME280;39658;51.090;-1.786;2023-03-21T04:26:31;100346.38;;;7.51;100.00
53262;BME280;39658;51.090;-1.786;2023-03-21T04:29:02;100349.56;;;7.56;100.00
53262;BME280;39658;51.090;-1.786;2023-03-21T04:31:30;100349.00;;;7.51;100.00
53262;BME280;39658;51.090;-1.786;2023-03-21T04:33:59;100340.84;;;7.55;100.00
53262;BME280;39658;51.090;-1.786;2023-03-21T04:36:26;100340.00;;;7.55;100.00
53262;BME280;39658;51.090;-1.786;2023-03-21T04:38:59;100339.06;;;7.56;100.00
53262;BME280;39658;51.090;-1.786;2023-03-21T04:41:26;100337.97;;;7.60;100.00
53262;BME280;39658;51.090;-1.786;2023-03-21T04:43:53;100338.88;;;7.59;100.00
53262;BME280;39658;51.090;-1.786;2023-03-21T04:46:22;100330.44;;;7.54;100.00
53262;BME280;39658;51.090;-1.786;2023-03-21T04:48:49;100328.28;;;7.61;100.00
53262;BME280;39658;51.090;-1.786;2023-03-21T04:51:16;100331.75;;;7.61;100.00
53262;BME280;39658;51.090;-1.786;2023-03-21T04:53:42;100329.50;;;7.55;100.00
53262;BME280;39658;51.090;-1.786;2023-03-21T04:56:11;100321.53;;;7.57;100.00
53262;BME280;39658;51.090;-1.786;2023-03-21T04:58:38;100316.78;;;7.63;100.00
53262;BME280;39658;51.090;-1.786;2023-03-21T05:01:06;100317.72;;;7.62;100.00
53262;BME280;39658;51.090;-1.786;2023-03-21T05:03:34;100309.94;;;7.61;100.00
53262;BME280;39658;51.090;-1.786;2023-03-21T05:06:05;100311.25;;;7.68;100.00
53262;BME280;39658;51.090;-1.786;2023-03-21T05:08:33;100304.22;;;7.68;100.00
53262;BME280;39658;51.090;-1.786;2023-03-21T05:11:00;100307.88;;;7.66;100.00
53262;BME280;39658;51.090;-1.786;2023-03-21T05:13:27;100311.34;;;7.66;100.00
53262;BME280;39658;51.090;-1.786;2023-03-21T05:15:53;100311.06;;;7.71;100.00
53262;BME280;39658;51.090;-1.786;2023-03-21T05:18:20;100306.28;;;7.78;100.00
53262;BME280;39658;51.090;-1.786;2023-03-21T05:20:51;100301.03;;;7.78;100.00
53262;BME280;39658;51.090;-1.786;2023-03-21T05:23:19;100299.94;;;7.82;100.00
53262;BME280;39658;51.090;-1.786;2023-03-21T05:25:47;100290.81;;;7.87;100.00
53262;BME280;39658;51.090;-1.786;2023-03-21T05:28:14;100294.13;;;7.91;100.00
53262;BME280;39658;51.090;-1.786;2023-03-21T05:30:43;100292.22;;;7.93;100.00
53262;BME280;39658;51.090;-1.786;2023-03-21T05:33:10;100290.34;;;7.95;100.00
53262;BME280;39658;51.090;-1.786;2023-03-21T05:35:37;100295.41;;;7.98;100.00
53262;BME280;39658;51.090;-1.786;2023-03-21T05:38:05;100304.22;;;7.97;100.00
53262;BME280;39658;51.090;-1.786;2023-03-21T05:40:32;100309.28;;;8.00;100.00
53262;BME280;39658;51.090;-1.786;2023-03-21T05:42:59;100308.81;;;8.08;100.00
53262;BME280;39658;51.090;-1.786;2023-03-21T05:45:26;100309.47;;;8.12;100.00
53262;BME280;39658;51.090;-1.786;2023-03-21T05:47:53;100308.44;;;8.14;100.00
53262;BME280;39658;51.090;-1.786;2023-03-21T05:50:19;100311.81;;;8.16;100.00
53262;BME280;39658;51.090;-1.786;2023-03-21T05:52:46;100309.38;;;8.13;100.00
53262;BME280;39658;51.090;-1.786;2023-03-21T05:55:14;100314.44;;;8.16;100.00
53262;BME280;39658;51.090;-1.786;2023-03-21T05:57:41;100316.75;;;8.21;100.00
53262;BME280;39658;51.090;-1.786;2023-03-21T06:00:09;100325.38;;;8.23;100.00
53262;BME280;39658;51.090;-1.786;2023-03-21T06:02:36;100314.03;;;8.22;100.00
53262;BME280;39658;51.090;-1.786;2023-03-21T06:05:04;100320.81;;;8.26;100.00
53262;BME280;39658;51.090;-1.786;2023-03-21T06:07:31;100322.47;;;8.27;100.00
53262;BME280;39658;51.090;-1.786;2023-03-21T06:09:58;100329.31;;;8.30;100.00
53262;BME280;39658;51.090;-1.786;2023-03-21T06:12:26;100319.66;;;8.31;100.00
53262;BME280;39658;51.090;-1.786;2023-03-21T06:14:53;100326.69;;;8.30;100.00
53262;BME280;39658;51.090;-1.786;2023-03-21T06:17:20;100332.78;;;8.31;100.00
53262;BME280;39658;51.090;-1.786;2023-03-21T06:19:47;100333.53;;;8.33;100.00
53262;BME280;39658;51.090;-1.786;2023-03-21T06:22:13;100325.63;;;8.33;100.00
53262;BME280;39658;51.090;-1.786;2023-03-21T06:24:41;100322.91;;;8.34;100.00
53262;BME280;39658;51.090;-1.786;2023-03-21T06:27:07;100321.16;;;8.35;100.00
53262;BME280;39658;51.090;-1.786;2023-03-21T06:29:35;100313.19;;;8.36;100.00
53262;BME280;39658;51.090;-1.786;2023-03-21T06:32:03;100315.91;;;8.35;100.00
53262;BME280;39658;51.090;-1.786;2023-03-21T06:34:31;100324.22;;;8.41;100.00
53262;BME280;39658;51.090;-1.786;2023-03-21T06:36:58;100313.19;;;8.36;100.00
53262;BME280;39658;51.090;-1.786;2023-03-21T06:39:25;100318.81;;;8.44;100.00
53262;BME280;39658;51.090;-1.786;2023-03-21T06:41:52;100318.72;;;8.46;100.00
53262;BME280;39658;51.090;-1.786;2023-03-21T06:44:18;100306.78;;;8.40;100.00
53262;BME280;39658;51.090;-1.786;2023-03-21T06:46:47;100311.19;;;8.40;100.00
53262;BME280;39658;51.090;-1.786;2023-03-21T06:49:14;100308.56;;;8.40;100.00
53262;BME280;39658;51.090;-1.786;2023-03-21T06:51:41;100290.56;;;8.34;100.00
53262;BME280;39658;51.090;-1.786;2023-03-21T06:54:08;100282.03;;;8.44;100.00
53262;BME280;39658;51.090;-1.786;2023-03-21T06:56:35;100288.88;;;8.47;100.00
53262;BME280;39658;51.090;-1.786;2023-03-21T06:59:02;100291.00;;;8.55;100.00
53262;BME280;39658;51.090;-1.786;2023-03-21T07:01:29;100281.94;;;8.46;100.00
53262;BME280;39658;51.090;-1.786;2023-03-21T07:03:57;100299.72;;;8.55;100.00
53262;BME280;39658;51.090;-1.786;2023-03-21T07:06:24;100292.69;;;8.56;100.00
53262;BME280;39658;51.090;-1.786;2023-03-21T07:08:53;100303.00;;;8.59;100.00
53262;BME280;39658;51.090;-1.786;2023-03-21T07:11:20;100300.16;;;8.62;100.00
53262;BME280;39658;51.090;-1.786;2023-03-21T07:13:48;100302.41;;;8.68;100.00
53262;BME280;39658;51.090;-1.786;2023-03-21T07:16:16;100292.84;;;8.67;100.00
53262;BME280;39658;51.090;-1.786;2023-03-21T07:18:43;100295.28;;;8.70;100.00
53262;BME280;39658;51.090;-1.786;2023-03-21T07:21:12;100299.97;;;8.65;100.00
53262;BME280;39658;51.090;-1.786;2023-03-21T07:23:39;100293.50;;;8.71;100.00
53262;BME280;39658;51.090;-1.786;2023-03-21T07:26:06;100295.28;;;8.70;100.00
53262;BME280;39658;51.090;-1.786;2023-03-21T07:28:34;100291.50;;;8.74;100.00
53262;BME280;39658;51.090;-1.786;2023-03-21T07:31:02;100294.78;;;8.78;100.00
53262;BME280;39658;51.090;-1.786;2023-03-21T07:33:30;100292.34;;;8.75;100.00
53262;BME280;39658;51.090;-1.786;2023-03-21T07:35:58;100289.22;;;8.83;100.00
53262;BME280;39658;51.090;-1.786;2023-03-21T07:38:26;100299.44;;;8.87;100.00
53262;BME280;39658;51.090;-1.786;2023-03-21T07:40:58;100308.50;;;8.96;100.00
53262;BME280;39658;51.090;-1.786;2023-03-21T07:43:25;100314.41;;;9.00;100.00
53262;BME280;39658;51.090;-1.786;2023-03-21T07:45:55;100312.81;;;8.97;100.00
53262;BME280;39658;51.090;-1.786;2023-03-21T07:48:22;100317.66;;;9.03;100.00
53262;BME280;39658;51.090;-1.786;2023-03-21T07:50:49;100301.78;;;9.05;100.00
53262;BME280;39658;51.090;-1.786;2023-03-21T07:53:16;100295.66;;;9.04;100.00
53262;BME280;39658;51.090;-1.786;2023-03-21T07:55:44;100305.06;;;9.21;100.00
53262;BME280;39658;51.090;-1.786;2023-03-21T07:58:14;100298.03;;;9.22;100.00
53262;BME280;39658;51.090;-1.786;2023-03-21T08:00:41;100289.63;;;9.29;100.00
53262;BME280;39658;51.090;-1.786;2023-03-21T08:03:08;100288.59;;;9.45;100.00
53262;BME280;39658;51.090;-1.786;2023-03-21T08:05:37;100294.56;;;9.60;100.00
53262;BME280;39658;51.090;-1.786;2023-03-21T08:08:04;100297.94;;;9.49;100.00
53262;BME280;39658;51.090;-1.786;2023-03-21T08:10:31;100293.19;;;9.28;100.00
53262;BME280;39658;51.090;-1.786;2023-03-21T08:13:00;100278.03;;;9.19;100.00
53262;BME280;39658;51.090;-1.786;2023-03-21T08:15:26;100292.78;;;9.22;100.00
53262;BME280;39658;51.090;-1.786;2023-03-21T08:17:53;100290.34;;;9.19;100.00
53262;BME280;39658;51.090;-1.786;2023-03-21T08:20:21;100303.59;;;9.17;100.00
53262;BME280;39658;51.090;-1.786;2023-03-21T08:22:49;100290.75;;;9.12;100.00
53262;BME280;39658;51.090;-1.786;2023-03-21T08:25:19;100287.16;;;9.13;100.00
53262;BME280;39658;51.090;-1.786;2023-03-21T08:27:46;100281.19;;;9.24;100.00
53262;BME280;39658;51.090;-1.786;2023-03-21T08:30:16;100276.25;;;9.45;100.00
53262;BME280;39658;51.090;-1.786;2023-03-21T08:32:44;100279.13;;;9.68;100.00
53262;BME280;39658;51.090;-1.786;2023-03-21T08:35:13;100293.50;;;9.75;100.00
53262;BME280;39658;51.090;-1.786;2023-03-21T08:37:41;100283.19;;;9.85;100.00
53262;BME280;39658;51.090;-1.786;2023-03-21T08:40:11;100268.81;;;10.02;100.00
53262;BME280;39658;51.090;-1.786;2023-03-21T08:42:39;100276.72;;;10.15;100.00
53262;BME280;39658;51.090;-1.786;2023-03-21T08:45:07;100275.84;;;10.14;100.00
53262;BME280;39658;51.090;-1.786;2023-03-21T08:47:35;100261.41;;;10.20;100.00
53262;BME280;39658;51.090;-1.786;2023-03-21T08:50:03;100269.03;;;10.12;100.00
53262;BME280;39658;51.090;-1.786;2023-03-21T08:52:31;100250.38;;;10.02;100.00
53262;BME280;39658;51.090;-1.786;2023-03-21T08:54:58;100271.81;;;9.84;100.00
53262;BME280;39658;51.090;-1.786;2023-03-21T08:57:26;100247.81;;;9.76;100.00
53262;BME280;39658;51.090;-1.786;2023-03-21T08:59:53;100273.31;;;9.76;100.00
53262;BME280;39658;51.090;-1.786;2023-03-21T09:02:20;100265.53;;;9.74;100.00
53262;BME280;39658;51.090;-1.786;2023-03-21T09:04:48;100253.59;;;9.81;100.00
53262;BME280;39658;51.090;-1.786;2023-03-21T09:07:17;100245.19;;;9.76;100.00
53262;BME280;39658;51.090;-1.786;2023-03-21T09:09:44;100243.69;;;9.85;100.00
53262;BME280;39658;51.090;-1.786;2023-03-21T09:12:11;100252.09;;;10.03;100.00
53262;BME280;39658;51.090;-1.786;2023-03-21T09:14:38;100260.59;;;10.06;100.00
53262;BME280;39658;51.090;-1.786;2023-03-21T09:17:05;100242.97;;;10.20;100.00
53262;BME280;39658;51.090;-1.786;2023-03-21T09:19:32;100241.16;;;10.57;100.00
53262;BME280;39658;51.090;-1.786;2023-03-21T09:22:01;100230.19;;;10.75;100.00
53262;BME280;39658;51.090;-1.786;2023-03-21T09:24:29;100215.47;;;11.30;100.00
53262;BME280;39658;51.090;-1.786;2023-03-21T09:26:56;100218.81;;;11.21;100.00
53262;BME280;39658;51.090;-1.786;2023-03-21T09:29:23;100216.16;;;11.32;100.00
53262;BME280;39658;51.090;-1.786;2023-03-21T09:31:50;100194.75;;;12.59;100.00
53262;BME280;39658;51.090;-1.786;2023-03-21T09:34:18;100186.47;;;12.19;100.00
53262;BME280;39658;51.090;-1.786;2023-03-21T09:36:45;100180.78;;;12.24;100.00
53262;BME280;39658;51.090;-1.786;2023-03-21T09:39:20;100176.81;;;12.30;100.00
53262;BME280;39658;51.090;-1.786;2023-03-21T09:41:56;100168.00;;;12.08;100.00
53262;BME280;39658;51.090;-1.786;2023-03-21T09:44:41;100176.22;;;11.82;100.00
53262;BME280;39658;51.090;-1.786;2023-03-21T09:47:14;100184.75;;;11.63;100.00
53262;BME280;39658;51.090;-1.786;2023-03-21T09:49:47;100174.63;;;12.02;100.00
53262;BME280;39658;51.090;-1.786;2023-03-21T09:52:19;100189.50;;;12.47;100.00
53262;BME280;39658;51.090;-1.786;2023-03-21T09:54:49;100187.78;;;12.79;100.00
53262;BME280;39658;51.090;-1.786;2023-03-21T09:57:26;100173.38;;;12.18;100.00
53262;BME280;39658;51.090;-1.786;2023-03-21T09:59:57;100185.00;;;12.59;100.00
53262;BME280;39658;51.090;-1.786;2023-03-21T10:02:34;100163.91;;;13.42;100.00
53262;BME280;39658;51.090;-1.786;2023-03-21T10:05:11;100150.50;;;15.39;100.00
53262;BME280;39658;51.090;-1.786;2023-03-21T10:07:41;100132.44;;;15.80;100.00
53262;BME280;39658;51.090;-1.786;2023-03-21T10:10:16;100119.06;;;15.62;100.00
53262;BME280;39658;51.090;-1.786;2023-03-21T10:12:45;100125.53;;;16.05;100.00
53262;BME280;39658;51.090;-1.786;2023-03-21T10:15:16;100121.78;;;14.77;100.00
53262;BME280;39658;51.090;-1.786;2023-03-21T10:17:49;100131.09;;;14.91;100.00
53262;BME280;39658;51.090;-1.786;2023-03-21T10:20:20;100132.00;;;14.33;100.00
53262;BME280;39658;51.090;-1.786;2023-03-21T10:22:49;100125.56;;;13.87;100.00
53262;BME280;39658;51.090;-1.786;2023-03-21T10:25:20;100113.16;;;14.65;100.00
53262;BME280;39658;51.090;-1.786;2023-03-21T10:27:48;100112.78;;;15.63;100.00
53262;BME280;39658;51.090;-1.786;2023-03-21T10:30:23;100114.09;;;14.74;100.00
53262;BME280;39658;51.090;-1.786;2023-03-21T10:32:51;100120.53;;;13.74;100.00
53262;BME280;39658;51.090;-1.786;2023-03-21T10:35:20;100128.88;;;12.55;100.00
53262;BME280;39658;51.090;-1.786;2023-03-21T10:37:47;100130.72;;;12.23;100.00
53262;BME280;39658;51.090;-1.786;2023-03-21T10:40:15;100138.41;;;11.93;100.00
53262;BME280;39658;51.090;-1.786;2023-03-21T10:42:43;100125.53;;;11.89;100.00
53262;BME280;39658;51.090;-1.786;2023-03-21T10:45:17;100140.94;;;12.16;100.00
53262;BME280;39658;51.090;-1.786;2023-03-21T10:47:47;100130.31;;;12.38;100.00
53262;BME280;39658;51.090;-1.786;2023-03-21T10:50:16;100130.75;;;12.44;100.00
53262;BME280;39658;51.090;-1.786;2023-03-21T10:52:45;100131.88;;;12.30;100.00
53262;BME280;39658;51.090;-1.786;2023-03-21T10:55:17;100136.09;;;12.32;100.00
53262;BME280;39658;51.090;-1.786;2023-03-21T10:57:47;100141.00;;;12.05;100.00
53262;BME280;39658;51.090;-1.786;2023-03-21T11:00:19;100140.16;;;12.57;100.00
53262;BME280;39658;51.090;-1.786;2023-03-21T11:02:48;100135.13;;;12.54;100.00
53262;BME280;39658;51.090;-1.786;2023-03-21T11:05:20;100135.84;;;12.56;100.00
53262;BME280;39658;51.090;-1.786;2023-03-21T11:07:56;100136.72;;;12.46;100.00
53262;BME280;39658;51.090;-1.786;2023-03-21T11:10:28;100135.78;;;12.47;100.00
53262;BME280;39658;51.090;-1.786;2023-03-21T11:12:58;100119.84;;;14.01;100.00
53262;BME280;39658;51.090;-1.786;2023-03-21T11:15:29;100119.38;;;13.67;100.00
53262;BME280;39658;51.090;-1.786;2023-03-21T11:17:56;100121.44;;;12.70;100.00
53262;BME280;39658;51.090;-1.786;2023-03-21T11:20:24;100128.94;;;12.44;100.00
53262;BME280;39658;51.090;-1.786;2023-03-21T11:22:54;100126.25;;;12.55;100.00
53262;BME280;39658;51.090;-1.786;2023-03-21T11:25:24;100132.97;;;13.11;100.00
53262;BME280;39658;51.090;-1.786;2023-03-21T11:27:54;100131.81;;;13.86;100.00
53262;BME280;39658;51.090;-1.786;2023-03-21T11:30:23;100138.84;;;14.06;100.00
53262;BME280;39658;51.090;-1.786;2023-03-21T11:32:53;100141.00;;;13.72;100.00
53262;BME280;39658;51.090;-1.786;2023-03-21T11:35:23;100126.56;;;14.05;100.00
53262;BME280;39658;51.090;-1.786;2023-03-21T11:37:52;100132.75;;;15.67;100.00
53262;BME280;39658;51.090;-1.786;2023-03-21T11:40:21;100121.72;;;16.70;100.00
53262;BME280;39658;51.090;-1.786;2023-03-21T11:42:50;100124.09;;;15.37;100.00
53262;BME280;39658;51.090;-1.786;2023-03-21T11:45:19;100119.41;;;14.84;100.00
53262;BME280;39658;51.090;-1.786;2023-03-21T11:47:49;100126.06;;;13.61;100.00
53262;BME280;39658;51.090;-1.786;2023-03-21T11:50:26;100127.13;;;15.80;100.00
53262;BME280;39658;51.090;-1.786;2023-03-21T11:53:09;100128.22;;;17.20;100.00
53262;BME280;39658;51.090;-1.786;2023-03-21T11:55:47;100098.94;;;17.20;100.00
53262;BME280;39658;51.090;-1.786;2023-03-21T11:58:25;100121.19;;;16.40;100.00
53262;BME280;39658;51.090;-1.786;2023-03-21T12:01:02;100112.66;;;14.99;100.00
53262;BME280;39658;51.090;-1.786;2023-03-21T12:04:08;100127.31;;;16.59;100.00
53262;BME280;39658;51.090;-1.786;2023-03-21T12:06:45;100121.34;;;15.19;100.00
53262;BME280;39658;51.090;-1.786;2023-03-21T12:09:31;100117.53;;;14.94;100.00
53262;BME280;39658;51.090;-1.786;2023-03-21T12:12:12;100115.72;;;17.12;100.00
53262;BME280;39658;51.090;-1.786;2023-03-21T12:14:49;100112.72;;;15.73;100.00
53262;BME280;39658;51.090;-1.786;2023-03-21T12:17:26;100124.88;;;14.04;100.00
53262;BME280;39658;51.090;-1.786;2023-03-21T12:20:11;100123.06;;;14.05;100.00
53262;BME280;39658;51.090;-1.786;2023-03-21T12:22:47;100119.59;;;14.14;100.00
53262;BME280;39658;51.090;-1.786;2023-03-21T12:25:23;100115.03;;;14.93;100.00
53262;BME280;39658;51.090;-1.786;2023-03-21T12:27:58;100105.63;;;14.12;100.00
53262;BME280;39658;51.090;-1.786;2023-03-21T12:30:43;100121.84;;;14.18;100.00
53262;BME280;39658;51.090;-1.786;2023-03-21T12:33:32;100128.06;;;14.37;100.00
53262;BME280;39658;51.090;-1.786;2023-03-21T12:36:33;100114.41;;;14.32;100.00
53262;BME280;39658;51.090;-1.786;2023-03-21T12:39:11;100107.31;;;14.13;100.00
53262;BME280;39658;51.090;-1.786;2023-03-21T12:41:52;100109.03;;;13.13;100.00
53262;BME280;39658;51.090;-1.786;2023-03-21T12:44:25;100108.69;;;12.75;100.00
53262;BME280;39658;51.090;-1.786;2023-03-21T12:46:59;100091.84;;;12.77;100.00
53262;BME280;39658;51.090;-1.786;2023-03-21T12:49:30;100100.97;;;13.24;100.00
53262;BME280;39658;51.090;-1.786;2023-03-21T12:52:03;100094.63;;;14.26;100.00
53262;BME280;39658;51.090;-1.786;2023-03-21T12:54:34;100083.25;;;14.63;100.00
53262;BME280;39658;51.090;-1.786;2023-03-21T12:57:06;100089.88;;;14.20;100.00
53262;BME280;39658;51.090;-1.786;2023-03-21T12:59:36;100096.31;;;13.38;100.00
53262;BME280;39658;51.090;-1.786;2023-03-21T13:02:16;100101.41;;;13.29;100.00
53262;BME280;39658;51.090;-1.786;2023-03-21T13:04:51;100106.13;;;12.95;100.00
53262;BME280;39658;51.090;-1.786;2023-03-21T13:07:23;100114.50;;;12.69;100.00
53262;BME280;39658;51.090;-1.786;2023-03-21T13:09:51;100113.59;;;12.59;100.00
53262;BME280;39658;51.090;-1.786;2023-03-21T13:15:28;100112.16;;;12.55;100.00
53262;BME280;39658;51.090;-1.786;2023-03-21T13:18:03;100130.47;;;12.89;100.00
53262;BME280;39658;51.090;-1.786;2023-03-21T13:20:41;100112.16;;;15.79;100.00
53262;BME280;39658;51.090;-1.786;2023-03-21T13:23:12;100098.31;;;16.74;100.00
53262;BME280;39658;51.090;-1.786;2023-03-21T13:25:41;100094.78;;;17.34;100.00
53262;BME280;39658;51.090;-1.786;2023-03-21T13:28:17;100071.13;;;18.64;100.00